createdAt,value
2017-09-04T00:00:00.949Z,70.12
2017-09-04T00:02:29.309Z,69.50
2017-09-04T00:04:59.224Z,69.44
2017-09-04T00:07:27.579Z,70.14
2017-09-04T00:09:55.958Z,70.14
2017-09-04T00:12:24.859Z,70.07
2017-09-04T00:14:53.235Z,70.26
2017-09-04T00:17:21.606Z,70.10
2017-09-04T00:19:50.298Z,70.45
2017-09-04T00:22:19.265Z,70.32
2017-09-04T00:24:47.639Z,70.08
2017-09-04T00:27:16.386Z,70.47
2017-09-04T00:29:44.727Z,70.60
2017-09-04T00:32:13.789Z,70.24
2017-09-04T00:34:42.561Z,70.43
2017-09-04T00:37:11.561Z,70.17
2017-09-04T00:39:39.890Z,70.61
2017-09-04T00:42:08.533Z,70.76
2017-09-04T00:44:37.134Z,70.19
2017-09-04T00:47:06.409Z,70.27
2017-09-04T00:49:35.086Z,70.60
2017-09-04T00:52:04.791Z,70.52
2017-09-04T00:54:33.162Z,69.72
2017-09-04T00:57:02.059Z,69.41
2017-09-04T00:59:30.437Z,69.04
2017-09-04T01:01:58.806Z,69.50
2017-09-04T01:04:27.474Z,69.53
2017-09-04T01:06:56.623Z,70.33
2017-09-04T01:09:25.895Z,71.08
2017-09-04T01:11:55.030Z,71.18
2017-09-04T01:14:24.946Z,71.86
2017-09-04T01:16:53.319Z,72.21
2017-09-04T01:19:22.928Z,72.11
2017-09-04T01:21:51.390Z,71.77
2017-09-04T01:24:19.791Z,71.52
2017-09-04T01:26:50.211Z,71.51
2017-09-04T01:29:18.606Z,71.07
2017-09-04T01:31:48.652Z,70.96
2017-09-04T01:34:17.662Z,71.01
2017-09-04T01:36:46.782Z,71.48
2017-09-04T01:39:15.144Z,72.02
2017-09-04T01:41:44.874Z,71.48
2017-09-04T01:44:16.480Z,71.36
2017-09-04T01:46:45.202Z,71.19
2017-09-04T01:49:14.493Z,71.45
2017-09-04T01:51:42.834Z,71.65
2017-09-04T01:54:11.555Z,71.24
2017-09-04T01:56:39.933Z,70.86
2017-09-04T01:59:08.650Z,70.42
2017-09-04T02:01:37.508Z,70.05
2017-09-04T02:04:05.876Z,70.54
2017-09-04T02:06:34.998Z,70.61
2017-09-04T02:09:03.812Z,70.38
2017-09-04T02:11:32.192Z,70.24
2017-09-04T02:14:00.535Z,70.88
2017-09-04T02:16:30.658Z,71.88
2017-09-04T02:18:59.025Z,71.51
2017-09-04T02:21:27.643Z,71.38
2017-09-04T02:23:57.496Z,70.66
2017-09-04T02:26:25.838Z,70.46
2017-09-04T02:28:54.994Z,70.65
2017-09-04T02:31:23.802Z,70.87
2017-09-04T02:33:52.472Z,70.84
2017-09-04T02:36:20.859Z,70.76
2017-09-04T02:38:49.865Z,70.74
2017-09-04T02:41:18.238Z,70.42
2017-09-04T02:43:46.609Z,69.61
2017-09-04T02:46:16.357Z,69.72
2017-09-04T02:48:44.709Z,69.80
2017-09-04T02:51:13.093Z,69.96
2017-09-04T02:53:41.777Z,70.12
2017-09-04T02:56:11.037Z,70.34
2017-09-04T02:58:39.405Z,70.31
2017-09-04T03:01:08.790Z,70.48
2017-09-04T03:03:37.123Z,70.19
2017-09-04T03:06:06.663Z,70.09
2017-09-04T03:08:35.291Z,69.76
2017-09-04T03:11:03.643Z,70.60
2017-09-04T03:13:31.970Z,70.67
2017-09-04T03:16:00.853Z,70.65
2017-09-04T03:18:29.317Z,70.83
2017-09-04T03:20:57.694Z,71.42
2017-09-04T03:23:27.167Z,71.29
2017-09-04T03:25:56.671Z,71.17
2017-09-04T03:28:25.050Z,72.21
2017-09-04T03:30:53.749Z,72.52
2017-09-04T03:33:22.826Z,72.25
2017-09-04T03:35:51.183Z,72.38
2017-09-04T03:38:19.871Z,71.73
2017-09-04T03:40:49.051Z,71.81
2017-09-04T03:43:17.401Z,72.20
2017-09-04T03:45:46.345Z,72.23
2017-09-04T03:48:14.706Z,71.89
2017-09-04T03:50:43.083Z,71.69
2017-09-04T03:53:11.801Z,72.03
2017-09-04T03:55:40.151Z,72.00
2017-09-04T03:58:08.733Z,72.24
2017-09-04T04:00:37.379Z,72.17
2017-09-04T04:03:05.745Z,71.51
2017-09-04T04:05:34.097Z,71.26
2017-09-04T04:08:03.827Z,70.92
2017-09-04T04:10:32.218Z,70.95
2017-09-04T04:13:00.864Z,71.31
2017-09-04T04:15:29.605Z,71.58
2017-09-04T04:17:58.382Z,71.22
2017-09-04T04:20:27.996Z,71.46
2017-09-04T04:22:56.726Z,70.88
2017-09-04T04:25:25.161Z,70.92
2017-09-04T04:27:53.532Z,71.17
2017-09-04T04:30:22.266Z,71.01
2017-09-04T04:32:51.411Z,71.15
2017-09-04T04:35:19.742Z,70.64
2017-09-04T04:37:49.961Z,71.61
2017-09-04T04:40:18.302Z,72.37
2017-09-04T04:42:46.650Z,73.12
2017-09-04T04:45:15.502Z,73.00
2017-09-04T04:47:44.472Z,72.76
2017-09-04T04:50:16.352Z,72.79
2017-09-04T04:52:45.243Z,72.70
2017-09-04T04:55:13.591Z,72.42
2017-09-04T04:57:42.697Z,72.58
2017-09-04T05:00:12.175Z,72.03
2017-09-04T05:02:40.537Z,71.87
2017-09-04T05:05:09.659Z,71.34
2017-09-04T05:07:38.290Z,70.78
2017-09-04T05:10:06.647Z,71.49
2017-09-04T05:12:35.013Z,70.82
2017-09-04T05:15:04.483Z,70.10
2017-09-04T05:17:32.848Z,70.06
2017-09-04T05:20:01.955Z,69.72
2017-09-04T05:22:31.428Z,70.54
2017-09-04T05:24:59.775Z,70.20
2017-09-04T05:27:29.178Z,68.94
2017-09-04T05:29:57.962Z,69.18
2017-09-04T05:32:26.354Z,69.30
2017-09-04T05:34:54.730Z,69.81
2017-09-04T05:37:23.434Z,69.21
2017-09-04T05:39:52.500Z,69.63
2017-09-04T05:42:20.917Z,68.71
2017-09-04T05:44:49.648Z,68.56
2017-09-04T05:47:18.053Z,68.52
2017-09-04T05:49:46.428Z,67.61
2017-09-04T05:52:15.490Z,68.00
2017-09-04T05:54:45.259Z,68.36
2017-09-04T05:57:13.637Z,67.18
2017-09-04T05:59:42.492Z,67.05
2017-09-04T06:02:10.860Z,66.72
2017-09-04T06:04:39.683Z,65.36
2017-09-04T06:07:09.918Z,65.42
2017-09-04T06:09:38.372Z,65.27
2017-09-04T06:12:07.068Z,65.06
2017-09-04T06:14:35.700Z,64.89
2017-09-04T06:17:04.879Z,65.20
2017-09-04T06:19:35.439Z,64.85
2017-09-04T06:22:04.545Z,64.68
2017-09-04T06:24:32.923Z,64.43
2017-09-04T06:27:04.111Z,64.87
2017-09-04T06:29:33.013Z,65.34
2017-09-04T06:32:02.053Z,67.07
2017-09-04T06:34:30.653Z,66.87
2017-09-04T06:36:59.548Z,66.94
2017-09-04T06:39:28.657Z,66.21
2017-09-04T06:41:57.838Z,65.88
2017-09-04T06:44:27.690Z,65.59
2017-09-04T06:46:56.038Z,65.30
2017-09-04T06:49:24.386Z,64.64
2017-09-04T06:51:53.920Z,63.77
2017-09-04T06:54:22.272Z,63.18
2017-09-04T06:56:50.703Z,62.09
2017-09-04T06:59:20.267Z,62.47
2017-09-04T07:01:50.502Z,62.05
2017-09-04T07:04:22.910Z,60.69
2017-09-04T07:06:52.580Z,59.96
2017-09-04T07:09:20.918Z,58.82
2017-09-04T07:11:49.279Z,57.11
2017-09-04T07:14:17.951Z,56.52
2017-09-04T07:16:46.353Z,55.78
2017-09-04T07:19:15.419Z,54.88
2017-09-04T07:21:44.793Z,54.32
2017-09-04T07:24:13.952Z,53.88
2017-09-04T07:26:42.299Z,52.54
2017-09-04T07:29:11.775Z,51.09
2017-09-04T07:31:40.347Z,49.23
2017-09-04T07:34:09.529Z,48.20
2017-09-04T07:36:38.184Z,45.86
2017-09-04T07:39:06.591Z,44.39
2017-09-04T07:41:34.968Z,43.61
2017-09-04T07:44:03.601Z,43.73
2017-09-04T07:46:31.970Z,42.46
2017-09-04T07:49:00.326Z,40.50
2017-09-04T07:51:29.117Z,38.87
2017-09-04T07:53:57.458Z,37.80
2017-09-04T07:56:25.960Z,37.43
2017-09-04T07:58:54.839Z,35.57
2017-09-04T08:01:23.176Z,33.84
2017-09-04T08:03:51.599Z,32.54
2017-09-04T08:06:20.464Z,32.41
2017-09-04T08:08:48.873Z,32.56
2017-09-04T08:11:17.959Z,32.10
2017-09-04T08:13:48.864Z,30.13
2017-09-04T08:16:17.217Z,29.15
2017-09-04T08:18:45.584Z,28.41
2017-09-04T08:21:15.254Z,27.97
2017-09-04T08:23:44.511Z,26.81
2017-09-04T08:26:12.961Z,25.72
2017-09-04T08:28:41.704Z,24.93
2017-09-04T08:31:10.699Z,24.29
2017-09-04T08:33:39.119Z,23.69
2017-09-04T08:36:07.916Z,23.47
2017-09-04T08:38:38.331Z,23.50
2017-09-04T08:41:08.292Z,22.58
2017-09-04T08:43:37.752Z,22.22
2017-09-04T08:46:06.109Z,21.33
2017-09-04T08:48:34.728Z,20.55
2017-09-04T08:51:03.495Z,20.35
2017-09-04T08:53:32.171Z,20.53
2017-09-04T08:56:00.805Z,19.87
2017-09-04T08:58:29.813Z,18.37
2017-09-04T09:00:59.534Z,18.48
2017-09-04T09:03:27.892Z,18.21
2017-09-04T09:05:57.534Z,18.31
2017-09-04T09:08:26.859Z,18.50
2017-09-04T09:10:55.223Z,19.78
2017-09-04T09:13:23.991Z,18.07
2017-09-04T09:15:52.364Z,17.72
2017-09-04T09:18:20.816Z,17.29
2017-09-04T09:20:50.675Z,16.75
2017-09-04T09:23:19.135Z,16.25
2017-09-04T09:25:47.624Z,16.57
2017-09-04T09:28:16.896Z,16.00
2017-09-04T09:30:45.487Z,15.96
2017-09-04T09:33:14.001Z,15.38
2017-09-04T09:35:43.227Z,15.52
2017-09-04T09:38:12.369Z,15.54
2017-09-04T09:40:40.787Z,16.17
2017-09-04T09:43:09.680Z,15.67
2017-09-04T09:45:38.150Z,16.39
2017-09-04T09:48:06.505Z,16.44
2017-09-04T09:50:35.205Z,16.26
2017-09-04T09:53:03.860Z,16.02
2017-09-04T09:55:32.630Z,15.94
2017-09-04T09:58:01.849Z,15.13
2017-09-04T10:00:30.949Z,14.31
2017-09-04T10:02:59.434Z,15.28
2017-09-04T10:05:29.619Z,15.94
2017-09-04T10:07:58.752Z,16.90
2017-09-04T10:10:27.870Z,16.50
2017-09-04T10:12:57.455Z,16.51
2017-09-04T10:15:25.818Z,16.13
2017-09-04T10:17:54.223Z,14.96
2017-09-04T10:20:25.263Z,14.61
2017-09-04T10:22:53.911Z,14.96
2017-09-04T10:25:22.839Z,14.09
2017-09-04T10:27:51.762Z,12.96
2017-09-04T10:30:20.476Z,12.66
2017-09-04T10:32:48.844Z,13.41
2017-09-04T10:35:18.769Z,13.88
2017-09-04T10:37:47.162Z,16.13
2017-09-04T10:40:15.549Z,16.18
2017-09-04T10:42:44.309Z,15.65
2017-09-04T10:45:12.714Z,17.52
2017-09-04T10:47:41.090Z,20.27
2017-09-04T10:50:09.889Z,21.34
2017-09-04T10:52:38.253Z,21.70
2017-09-04T10:55:06.639Z,19.05
2017-09-04T10:57:35.659Z,16.93
2017-09-04T11:00:04.028Z,17.79
2017-09-04T11:02:34.418Z,17.47
2017-09-04T11:05:03.099Z,15.87
2017-09-04T11:07:31.478Z,15.16
2017-09-04T11:10:00.776Z,14.13
2017-09-04T11:12:29.711Z,13.39
2017-09-04T11:14:58.475Z,13.35
2017-09-04T11:17:26.843Z,13.99
2017-09-04T11:19:55.485Z,14.12
2017-09-04T11:22:23.824Z,14.69
2017-09-04T11:24:52.340Z,14.38
2017-09-04T11:27:21.091Z,14.16
2017-09-04T11:29:50.155Z,14.20
2017-09-04T11:32:18.493Z,14.40
2017-09-04T11:34:47.935Z,17.02
2017-09-04T11:37:16.450Z,19.11
2017-09-04T11:39:44.864Z,20.27
2017-09-04T11:42:14.408Z,18.80
2017-09-04T11:44:42.769Z,16.49
2017-09-04T11:47:11.923Z,15.25
2017-09-04T11:49:41.351Z,13.80
2017-09-04T11:52:09.702Z,13.57
2017-09-04T11:54:38.918Z,13.19
2017-09-04T11:57:08.666Z,13.33
2017-09-04T11:59:40.964Z,13.44
2017-09-04T12:02:09.655Z,13.63
2017-09-04T12:04:38.034Z,13.44
2017-09-04T12:07:06.435Z,12.75
2017-09-04T12:09:36.683Z,13.11
2017-09-04T12:12:05.178Z,12.92
2017-09-04T12:14:34.472Z,12.58
2017-09-04T12:17:04.225Z,13.16
2017-09-04T12:19:32.993Z,12.95
2017-09-04T12:22:01.619Z,12.96
2017-09-04T12:24:30.441Z,12.08
2017-09-04T12:26:58.796Z,12.95
2017-09-04T12:29:27.146Z,15.90
2017-09-04T12:31:55.920Z,17.34
2017-09-04T12:34:24.327Z,16.56
2017-09-04T12:36:53.261Z,17.81
2017-09-04T12:39:22.187Z,16.61
2017-09-04T12:41:51.277Z,15.78
2017-09-04T12:44:20.433Z,15.23
2017-09-04T12:46:49.911Z,16.68
2017-09-04T12:49:18.426Z,17.86
2017-09-04T12:51:46.824Z,19.49
2017-09-04T12:54:15.528Z,19.85
2017-09-04T12:56:44.866Z,20.15
2017-09-04T12:59:13.224Z,20.37
2017-09-04T13:01:42.085Z,18.96
2017-09-04T13:04:10.438Z,17.70
2017-09-04T13:06:38.925Z,16.79
2017-09-04T13:09:09.240Z,16.16
2017-09-04T13:14:56.657Z,15.55
2017-09-04T13:17:30.583Z,16.21
2017-09-04T13:34:10.097Z,17.84
2017-09-04T13:39:52.930Z,17.87
2017-09-04T13:42:27.459Z,18.37
2017-09-04T13:48:14.623Z,19.66
2017-09-04T13:53:51.046Z,20.27
2017-09-04T13:59:29.270Z,22.16
2017-09-04T14:01:58.284Z,22.71
2017-09-04T14:04:28.465Z,23.10
2017-09-04T14:07:03.171Z,22.64
2017-09-04T14:09:31.522Z,22.89
2017-09-04T14:15:19.918Z,24.68
2017-09-04T14:17:53.022Z,25.27
2017-09-04T14:20:23.356Z,25.72
2017-09-04T14:22:51.754Z,26.47
2017-09-04T14:25:20.924Z,26.42
2017-09-04T14:27:49.416Z,26.51
2017-09-04T14:30:18.559Z,26.63
2017-09-04T14:32:47.773Z,27.17
2017-09-04T14:35:16.412Z,27.86
2017-09-04T14:37:44.842Z,28.16
2017-09-04T14:40:15.954Z,28.35
2017-09-04T14:42:46.922Z,28.40
2017-09-04T14:45:16.972Z,28.24
2017-09-04T14:47:46.650Z,28.57
2017-09-04T14:50:15.251Z,28.23
2017-09-04T14:52:44.313Z,28.27
2017-09-04T14:55:12.875Z,27.84
2017-09-04T14:57:41.251Z,27.87
2017-09-04T15:00:10.787Z,27.58
2017-09-04T15:02:39.183Z,28.04
2017-09-04T15:05:07.579Z,28.51
2017-09-04T15:07:36.372Z,29.00
2017-09-04T15:10:04.752Z,29.43
2017-09-04T15:12:33.157Z,30.10
2017-09-04T15:15:02.152Z,30.21
2017-09-04T15:17:30.903Z,30.01
2017-09-04T15:19:59.285Z,29.80
2017-09-04T15:22:28.700Z,29.81
2017-09-04T15:24:57.267Z,29.75
2017-09-04T15:27:25.631Z,29.58
2017-09-04T15:29:54.445Z,29.28
2017-09-04T15:32:23.054Z,29.59
2017-09-04T15:34:51.542Z,30.47
2017-09-04T15:37:20.572Z,30.04
2017-09-04T15:39:48.992Z,29.79
2017-09-04T15:42:17.404Z,30.30
2017-09-04T15:44:47.038Z,30.11
2017-09-04T15:47:15.909Z,30.39
2017-09-04T15:49:45.195Z,30.42
2017-09-04T15:52:14.080Z,30.49
2017-09-04T15:54:42.439Z,30.52
2017-09-04T15:57:12.350Z,30.43
2017-09-04T15:59:43.287Z,30.80
2017-09-04T16:02:11.663Z,31.15
2017-09-04T16:04:40.088Z,31.74
2017-09-04T16:07:11.611Z,31.61
2017-09-04T16:09:40.008Z,31.36
2017-09-04T16:12:14.524Z,31.93
2017-09-04T16:14:56.572Z,31.54
2017-09-04T16:17:35.353Z,31.88
2017-09-04T16:20:04.142Z,31.83
2017-09-04T16:22:44.317Z,32.68
2017-09-04T16:25:13.571Z,32.86
2017-09-04T16:27:43.743Z,33.55
2017-09-04T16:30:13.404Z,33.85
2017-09-04T16:32:43.735Z,33.71
2017-09-04T16:35:24.849Z,33.79
2017-09-04T16:37:55.723Z,33.88
2017-09-04T16:40:24.683Z,34.32
2017-09-04T16:43:04.251Z,34.65
2017-09-04T16:45:36.111Z,34.78
2017-09-04T16:48:05.318Z,34.70
2017-09-04T16:50:37.294Z,34.61
2017-09-04T16:53:09.690Z,34.85
2017-09-04T16:55:39.569Z,35.05
2017-09-04T16:58:12.769Z,34.99
2017-09-04T17:00:41.841Z,35.44
2017-09-04T17:03:10.240Z,35.76
2017-09-04T17:05:39.459Z,36.35
2017-09-04T17:08:07.924Z,36.20
2017-09-04T17:10:42.327Z,36.22
2017-09-04T17:13:10.753Z,36.63
2017-09-04T17:15:45.110Z,37.14
2017-09-04T17:18:13.598Z,37.40
2017-09-04T17:20:43.644Z,36.75
2017-09-04T17:23:14.002Z,37.18
2017-09-04T17:25:44.003Z,37.18
2017-09-04T17:28:12.429Z,37.51
2017-09-04T17:30:41.261Z,37.62
2017-09-04T17:33:10.428Z,37.85
2017-09-04T17:35:41.089Z,38.31
2017-09-04T17:38:09.796Z,38.83
2017-09-04T17:40:38.159Z,39.81
2017-09-04T17:43:07.482Z,39.77
2017-09-04T17:45:36.472Z,39.84
2017-09-04T17:48:05.498Z,40.17
2017-09-04T17:50:33.926Z,40.25
2017-09-04T17:53:02.776Z,40.84
2017-09-04T17:55:31.676Z,40.51
2017-09-04T17:58:00.143Z,40.52
2017-09-04T18:00:29.519Z,41.51
2017-09-04T18:02:57.920Z,42.12
2017-09-04T18:05:27.251Z,42.38
2017-09-04T18:07:56.662Z,43.46
2017-09-04T18:10:25.249Z,44.08
2017-09-04T18:12:53.666Z,44.76
2017-09-04T18:15:22.328Z,44.63
2017-09-04T18:17:51.525Z,44.99
2017-09-04T18:20:20.998Z,46.10
2017-09-04T18:22:49.807Z,45.51
2017-09-04T18:25:18.458Z,46.23
2017-09-04T18:27:46.951Z,47.20
2017-09-04T18:30:16.126Z,48.13
2017-09-04T18:32:44.495Z,49.01
2017-09-04T18:35:12.858Z,49.01
2017-09-04T18:37:41.498Z,49.11
2017-09-04T18:40:10.069Z,50.31
2017-09-04T18:42:38.444Z,51.44
2017-09-04T18:45:07.155Z,51.89
2017-09-04T18:47:35.624Z,52.58
2017-09-04T18:50:03.981Z,53.51
2017-09-04T18:52:34.061Z,54.13
2017-09-04T18:55:02.411Z,54.71
2017-09-04T18:57:30.819Z,55.98
2017-09-04T18:59:59.722Z,56.55
2017-09-04T19:02:28.196Z,57.14
2017-09-04T19:04:56.589Z,57.57
2017-09-04T19:07:25.704Z,58.47
2017-09-04T19:09:54.163Z,58.57
2017-09-04T19:12:22.526Z,58.90
2017-09-04T19:14:51.377Z,59.78
2017-09-04T19:17:19.754Z,60.23
2017-09-04T19:19:48.132Z,60.47
2017-09-04T19:22:16.891Z,60.18
2017-09-04T19:24:45.938Z,60.49
2017-09-04T19:27:14.329Z,60.83
2017-09-04T19:29:43.247Z,62.04
2017-09-04T19:32:12.176Z,62.31
2017-09-04T19:34:41.303Z,62.50
2017-09-04T19:37:10.389Z,62.34
2017-09-04T19:39:38.781Z,62.26
2017-09-04T19:42:07.284Z,62.75
2017-09-04T19:44:38.480Z,62.91
2017-09-04T19:47:07.791Z,63.39
2017-09-04T19:52:13.078Z,63.59
2017-09-04T19:54:41.485Z,64.62
2017-09-04T19:57:10.643Z,64.49
2017-09-04T19:59:39.306Z,65.18
2017-09-04T20:02:08.434Z,64.13
2017-09-04T20:04:36.853Z,64.41
2017-09-04T20:07:05.518Z,65.38
2017-09-04T20:09:33.897Z,66.13
2017-09-04T20:12:02.284Z,66.40
2017-09-04T20:14:31.779Z,66.30
2017-09-04T20:17:01.170Z,66.69
2017-09-04T20:19:31.019Z,67.19
2017-09-04T20:22:00.017Z,67.33
2017-09-04T20:24:28.678Z,67.33
2017-09-04T20:26:57.059Z,67.54
2017-09-04T20:29:25.945Z,67.56
2017-09-04T20:31:54.287Z,67.77
2017-09-04T20:34:22.696Z,67.40
2017-09-04T20:36:51.738Z,67.35
2017-09-04T20:39:21.105Z,67.60
2017-09-04T20:41:49.575Z,67.58
2017-09-04T20:44:18.489Z,67.29
2017-09-04T20:46:46.888Z,67.24
2017-09-04T20:49:15.854Z,67.48
2017-09-04T20:51:44.572Z,67.71
2017-09-04T20:54:12.942Z,67.60
2017-09-04T20:56:41.305Z,68.31
2017-09-04T20:59:10.172Z,67.81
2017-09-04T21:01:38.548Z,67.81
2017-09-04T21:04:06.920Z,68.21
2017-09-04T21:06:36.484Z,68.92
2017-09-04T21:09:04.852Z,69.54
2017-09-04T21:11:33.229Z,69.83
2017-09-04T21:14:02.715Z,70.43
2017-09-04T21:16:31.104Z,70.00
2017-09-04T21:18:59.489Z,69.68
2017-09-04T21:21:28.206Z,69.56
2017-09-04T21:23:56.920Z,69.32
2017-09-04T21:26:25.254Z,69.78
2017-09-04T21:28:53.985Z,69.98
2017-09-04T21:31:22.352Z,69.71
2017-09-04T21:33:51.503Z,69.59
2017-09-04T21:36:20.126Z,69.56
2017-09-04T21:38:49.098Z,70.16
2017-09-04T21:41:17.546Z,69.86
2017-09-04T21:43:47.208Z,70.01
2017-09-04T21:46:15.567Z,69.77
2017-09-04T21:48:44.912Z,69.83
2017-09-04T21:51:14.094Z,70.34
2017-09-04T21:53:43.365Z,70.03
2017-09-04T21:56:11.743Z,70.15
2017-09-04T21:58:40.391Z,70.33
2017-09-04T22:01:09.677Z,70.59
2017-09-04T22:03:38.022Z,70.75
2017-09-04T22:06:08.790Z,71.06
2017-09-04T22:08:37.199Z,70.85
2017-09-04T22:11:06.486Z,70.72
2017-09-04T22:13:35.290Z,70.75
2017-09-04T22:16:03.683Z,70.80
2017-09-04T22:18:32.129Z,70.78
2017-09-04T22:21:01.542Z,70.77
2017-09-04T22:23:29.931Z,71.36
2017-09-04T22:25:58.905Z,72.42
2017-09-04T22:28:27.892Z,72.14
2017-09-04T22:30:56.606Z,72.66
2017-09-04T22:33:27.419Z,72.37
2017-09-04T22:35:56.326Z,71.49
2017-09-04T22:38:24.698Z,71.43
2017-09-04T22:40:53.082Z,71.34
2017-09-04T22:43:21.793Z,71.55
2017-09-04T22:45:50.199Z,72.19
2017-09-04T22:48:18.633Z,72.52
2017-09-04T22:50:47.607Z,73.01
2017-09-04T22:53:16.005Z,73.01
2017-09-04T22:55:45.355Z,72.71
2017-09-04T22:58:14.957Z,72.40
2017-09-04T23:00:43.408Z,72.97
2017-09-04T23:03:12.705Z,72.53
2017-09-04T23:05:42.423Z,72.92
2017-09-04T23:08:11.707Z,73.00
2017-09-04T23:10:40.122Z,73.17
2017-09-04T23:13:08.892Z,73.40
2017-09-04T23:15:37.267Z,72.87
2017-09-04T23:18:05.659Z,72.75
2017-09-04T23:20:34.811Z,72.33
2017-09-04T23:23:03.398Z,72.25
2017-09-04T23:25:32.530Z,73.05
2017-09-04T23:28:01.438Z,73.30
2017-09-04T23:30:29.841Z,74.26
2017-09-04T23:32:58.251Z,73.78
2017-09-04T23:35:27.284Z,73.46
2017-09-04T23:37:56.547Z,72.97
2017-09-04T23:40:25.405Z,72.95
2017-09-04T23:42:54.833Z,72.81
2017-09-04T23:45:24.121Z,72.80
2017-09-04T23:47:54.258Z,72.43
2017-09-04T23:50:23.929Z,72.22
2017-09-04T23:52:52.396Z,72.77
2017-09-04T23:55:21.523Z,72.81
2017-09-04T23:57:51.328Z,72.59
